Terminal Aerodrome Forecast
Issued by NWS

Home | Current Version | Previous Version | Text Only | Print | Product List | Glossary On
Versions: 1 2 3 4 5 6 7 8 9 10 11 12 13 14 15 16 17 18
654
FTUS43 KPAH 182053 AAA
TAFCGI
TAF AMD
KCGI 182053Z 1821/1918 32025G40KT P6SM OVC015
     FM190000 32018G28KT P6SM SCT060
     FM190500 31011KT P6SM SKC
     FM191300 33008KT P6SM SKC=

USA.gov is the U.S. government's official web portal to all federal, state and local government web resources and services.